Terminal Aerodrome Forecast
Issued by NWS Shreveport, LA

Home | Current Version | Previous Version | Text Only | Print | Product List | Glossary On
Versions: 1 2 3 4 5 6 7 8 9 10 11 12
000
FTUS44 KSHV 021144
TAFELD
TAF
KELD 021144Z 0212/0312 00000KT 4SM BR BKN110
     FM021400 14005KT P6SM SCT040 BKN120 BKN250
     FM030000 VRB03KT P6SM SCT050 SCT140 BKN250
     FM030600 VRB03KT P6SM SCT150=

USA.gov is the U.S. government's official web portal to all federal, state and local government web resources and services.